KSGR/SGR METAR and TAF weather

Enter ICAO airport designator
Station Type Date Time Source
KSGR METAR 2018/12/13 05:53 UTC NOAA

KSGR 130553Z AUTO 14005KT 10SM FEW024 SCT032 18/16 A2986 RMK AO2 SLP114 T01830156 10200 20183 402110117 58015


Station Type Date Time Source
KSGR Decoded METAR 2018/12/13 05:53 UTC NOAA

SUGARLAND REGIONAL AIRPORT, TX, United States (KSGR) 29-37N 095-39W
Dec 13, 2018 - 12:53 AM EST / 2018.12.13 0553 UTC
Wind: from the SE (140 degrees) at 6 MPH (5 KT):0
Visibility: 10 mile(s):0
Sky conditions: partly cloudy
Temperature: 64.9 F (18.3 C)
Dew Point: 60.1 F (15.6 C)
Relative Humidity: 84%
Pressure (altimeter): 29.86 in. Hg (1011 hPa)
Pressure tendency: 0.04 inches (1.5 hPa) lower than three hours ago
ob: KSGR 130553Z AUTO 14005KT 10SM FEW024 SCT032 18/16 A2986 RMK AO2 SLP114 T01830156 10200 20183 402110117 58015
cycle: 6

Station Type Date Time Source
KSGR TAF 2018/12/13 06:42 UTC NOAA

TAF KSGR 130540Z 1306/1406 14008KT P6SM BKN030
FM130900 VRB10G25KT 6SM SHRA VCTS OVC015CB
FM131400 22009KT P6SM SCT008 BKN010
FM132100 25014G21KT P6SM SCT025
FM140300 28013G21KT P6SM FEW040


Example: see airport list